Rainbow Quest — ZDJZ7 — position and weather

sailwx.info

Track history (hours):
 
Tides and Currents Weather Stations Pressure Air Temp Water Temp Dewpoint Dewpoint Depression Visibility Wind Speed Wind Dir Waves Ship Positions

Rainbow Quest

Last reported at 2018-Jun-18 12:23 UTC. Time now 2018-Jun-18 17:37 UTC.
Position N 53°37' E 005°40'.

Length 180 m; draft 10.5 m.

Type: Cargo ship. MMSI: 236111696.

Date/timePositionNaut miles runAvg speedWind from/ knotsBaromVisibWave heightAir tempDewpointWater temp
2018-Jun-18 12:23N 53°37' E 005°40'613.7
2018-Jun-18 11:58N 53°35' E 005°31'613.6
2018-Jun-18 11:30N 53°33' E 005°21'713.6
2018-Jun-18 11:00N 53°30' E 005°10'713.8
2018-Jun-18 10:30N 53°28' E 004°60'713.9
2018-Jun-18 10:00N 53°25' E 004°49'5413.8
2018-Jun-18 06:04N 52°40' E 003°59'7213.1
2018-Jun-18 00:35N 51°48' E 002°37'211.1
2018-Jun-18 00:25N 51°46' E 002°35'511.0
2018-Jun-17 23:58N 51°43' E 002°30'511.0
2018-Jun-17 23:30N 51°39' E 002°25'510.7
2018-Jun-17 23:00N 51°34' E 002°20'510.9
2018-Jun-17 22:31N 51°30' E 002°15'611.1
2018-Jun-17 22:01N 51°26' E 002°09'611.5
2018-Jun-17 21:31N 51°20' E 002°07'611.6
2018-Jun-17 21:01N 51°15' E 002°04'611.8
2018-Jun-17 20:30N 51°12' E 001°56'611.8
2018-Jun-17 20:00N 51°09' E 001°48'612.2
2018-Jun-17 19:30N 51°04' E 001°41'612.6
2018-Jun-17 19:00N 50°60' E 001°34'613.1
2018-Jun-17 18:31N 50°55' E 001°28'713.2
2018-Jun-17 18:01N 50°49' E 001°24'15613.8
2018-Jun-17 06:40N 49°53' W 002°26'312.2
2018-Jun-17 06:24N 49°52' W 002°30'611.9
2018-Jun-17 05:56N 49°51' W 002°39'511.6
2018-Jun-17 05:31N 49°50' W 002°46'611.5
2018-Jun-17 05:01N 49°48' W 002°55'711.1
2018-Jun-17 04:25N 49°46' W 003°04'511.0
2018-Jun-17 04:00N 49°45' W 003°11'510.7
2018-Jun-17 03:30N 49°43' W 003°19'  
Track history (hours):
 
Tides and Currents Weather Stations Pressure Air Temp Water Temp Dewpoint Dewpoint Depression Visibility Wind Speed Wind Dir Waves Ship Positions

Rainbow Quest

Last reported at 2018-Jun-18 12:23 UTC. Time now 2018-Jun-18 17:37 UTC.
Position N 53°37' E 005°40'.

Length 180 m; draft 10.5 m.

Type: Cargo ship. MMSI: 236111696.

Date/timePositionNaut miles runAvg speedWind from/ knotsBaromVisibWave heightAir tempDewpointWater temp
2018-Jun-18 12:23N 53°37' E 005°40'613.7
2018-Jun-18 11:58N 53°35' E 005°31'613.6
2018-Jun-18 11:30N 53°33' E 005°21'713.6
2018-Jun-18 11:00N 53°30' E 005°10'713.8
2018-Jun-18 10:30N 53°28' E 004°60'713.9
2018-Jun-18 10:00N 53°25' E 004°49'5413.8
2018-Jun-18 06:04N 52°40' E 003°59'7213.1
2018-Jun-18 00:35N 51°48' E 002°37'211.1
2018-Jun-18 00:25N 51°46' E 002°35'511.0
2018-Jun-17 23:58N 51°43' E 002°30'511.0
2018-Jun-17 23:30N 51°39' E 002°25'510.7
2018-Jun-17 23:00N 51°34' E 002°20'510.9
2018-Jun-17 22:31N 51°30' E 002°15'611.1
2018-Jun-17 22:01N 51°26' E 002°09'611.5
2018-Jun-17 21:31N 51°20' E 002°07'611.6
2018-Jun-17 21:01N 51°15' E 002°04'611.8
2018-Jun-17 20:30N 51°12' E 001°56'611.8
2018-Jun-17 20:00N 51°09' E 001°48'612.2
2018-Jun-17 19:30N 51°04' E 001°41'612.6
2018-Jun-17 19:00N 50°60' E 001°34'613.1
2018-Jun-17 18:31N 50°55' E 001°28'713.2
2018-Jun-17 18:01N 50°49' E 001°24'15613.8
2018-Jun-17 06:40N 49°53' W 002°26'312.2
2018-Jun-17 06:24N 49°52' W 002°30'611.9
2018-Jun-17 05:56N 49°51' W 002°39'511.6
2018-Jun-17 05:31N 49°50' W 002°46'611.5
2018-Jun-17 05:01N 49°48' W 002°55'711.1
2018-Jun-17 04:25N 49°46' W 003°04'511.0
2018-Jun-17 04:00N 49°45' W 003°11'510.7
2018-Jun-17 03:30N 49°43' W 003°19'  

Dump ship's entire track history